sensor_id;sensor_type;location;lat;lon;timestamp;temperature;humidity
75786;DHT22;64402;44.708;37.644;2023-06-26T00:00:43;19.91;78.70
75786;DHT22;64402;44.708;37.644;2023-06-26T00:03:09;19.94;78.75
75786;DHT22;64402;44.708;37.644;2023-06-26T00:05:41;19.96;79.17
75786;DHT22;64402;44.708;37.644;2023-06-26T00:08:07;19.97;79.35
75786;DHT22;64402;44.708;37.644;2023-06-26T00:10:34;19.96;79.28
75786;DHT22;64402;44.708;37.644;2023-06-26T00:13:00;19.98;78.89
75786;DHT22;64402;44.708;37.644;2023-06-26T00:15:27;19.98;79.20
75786;DHT22;64402;44.708;37.644;2023-06-26T00:17:58;19.98;78.68
75786;DHT22;64402;44.708;37.644;2023-06-26T00:20:24;19.97;79.11
75786;DHT22;64402;44.708;37.644;2023-06-26T00:22:51;19.98;78.89
75786;DHT22;64402;44.708;37.644;2023-06-26T00:25:17;19.97;78.74
75786;DHT22;64402;44.708;37.644;2023-06-26T00:27:43;19.91;78.75
75786;DHT22;64402;44.708;37.644;2023-06-26T00:30:09;19.95;78.18
75786;DHT22;64402;44.708;37.644;2023-06-26T00:32:36;19.99;78.05
75786;DHT22;64402;44.708;37.644;2023-06-26T00:35:02;20.03;78.34
75786;DHT22;64402;44.708;37.644;2023-06-26T00:37:28;19.99;78.24
75786;DHT22;64402;44.708;37.644;2023-06-26T00:39:54;20.00;78.43
75786;DHT22;64402;44.708;37.644;2023-06-26T00:42:20;19.96;78.56
75786;DHT22;64402;44.708;37.644;2023-06-26T00:44:47;19.92;78.66
75786;DHT22;64402;44.708;37.644;2023-06-26T00:47:15;19.95;78.85
75786;DHT22;64402;44.708;37.644;2023-06-26T00:49:43;19.90;78.67
75786;DHT22;64402;44.708;37.644;2023-06-26T00:52:09;19.88;78.60
75786;DHT22;64402;44.708;37.644;2023-06-26T00:54:35;19.87;78.02
75786;DHT22;64402;44.708;37.644;2023-06-26T00:57:02;19.83;78.47
75786;DHT22;64402;44.708;37.644;2023-06-26T00:59:28;19.81;77.89
75786;DHT22;64402;44.708;37.644;2023-06-26T01:01:55;19.79;77.75
75786;DHT22;64402;44.708;37.644;2023-06-26T01:04:21;19.79;77.89
75786;DHT22;64402;44.708;37.644;2023-06-26T01:06:48;19.74;77.66
75786;DHT22;64402;44.708;37.644;2023-06-26T01:09:17;19.69;77.66
75786;DHT22;64402;44.708;37.644;2023-06-26T01:11:48;19.71;77.53
75786;DHT22;64402;44.708;37.644;2023-06-26T01:14:14;19.74;77.79
75786;DHT22;64402;44.708;37.644;2023-06-26T01:16:41;19.73;77.50
75786;DHT22;64402;44.708;37.644;2023-06-26T01:19:23;19.74;78.08
75786;DHT22;64402;44.708;37.644;2023-06-26T01:24:44;19.69;78.24
75786;DHT22;64402;44.708;37.644;2023-06-26T01:27:19;19.65;78.13
75786;DHT22;64402;44.708;37.644;2023-06-26T01:29:49;19.59;78.44
75786;DHT22;64402;44.708;37.644;2023-06-26T01:32:18;19.54;78.40
75786;DHT22;64402;44.708;37.644;2023-06-26T01:34:51;19.52;78.18
75786;DHT22;64402;44.708;37.644;2023-06-26T01:37:18;19.45;78.48
75786;DHT22;64402;44.708;37.644;2023-06-26T01:39:44;19.41;78.71
75786;DHT22;64402;44.708;37.644;2023-06-26T01:42:10;19.40;78.53
75786;DHT22;64402;44.708;37.644;2023-06-26T01:44:44;19.39;78.32
75786;DHT22;64402;44.708;37.644;2023-06-26T01:47:11;19.37;78.14
75786;DHT22;64402;44.708;37.644;2023-06-26T01:50:00;19.39;78.15
75786;DHT22;64402;44.708;37.644;2023-06-26T01:58:02;19.53;77.17
75786;DHT22;64402;44.708;37.644;2023-06-26T02:00:28;19.58;77.33
75786;DHT22;64402;44.708;37.644;2023-06-26T02:02:55;19.63;77.48
75786;DHT22;64402;44.708;37.644;2023-06-26T02:05:21;19.62;77.95
75786;DHT22;64402;44.708;37.644;2023-06-26T02:07:49;19.61;77.51
75786;DHT22;64402;44.708;37.644;2023-06-26T02:10:17;19.67;77.82
75786;DHT22;64402;44.708;37.644;2023-06-26T02:12:43;19.62;77.92
75786;DHT22;64402;44.708;37.644;2023-06-26T02:15:09;19.61;77.55
75786;DHT22;64402;44.708;37.644;2023-06-26T02:17:36;19.60;77.79
75786;DHT22;64402;44.708;37.644;2023-06-26T02:20:02;19.60;78.18
75786;DHT22;64402;44.708;37.644;2023-06-26T02:22:28;19.59;78.34
75786;DHT22;64402;44.708;37.644;2023-06-26T02:24:54;19.59;78.67
75786;DHT22;64402;44.708;37.644;2023-06-26T02:27:20;19.69;78.63
75786;DHT22;64402;44.708;37.644;2023-06-26T02:29:47;19.75;78.26
75786;DHT22;64402;44.708;37.644;2023-06-26T02:32:13;19.82;78.31
75786;DHT22;64402;44.708;37.644;2023-06-26T02:34:39;19.80;78.79
75786;DHT22;64402;44.708;37.644;2023-06-26T02:37:05;19.80;78.63
75786;DHT22;64402;44.708;37.644;2023-06-26T02:39:34;19.81;78.90
75786;DHT22;64402;44.708;37.644;2023-06-26T02:42:00;19.92;79.04
75786;DHT22;64402;44.708;37.644;2023-06-26T02:44:26;19.97;78.82
75786;DHT22;64402;44.708;37.644;2023-06-26T02:46:53;19.98;78.58
75786;DHT22;64402;44.708;37.644;2023-06-26T02:49:19;20.03;78.16
75786;DHT22;64402;44.708;37.644;2023-06-26T02:51:45;20.06;78.33
75786;DHT22;64402;44.708;37.644;2023-06-26T02:54:11;20.11;78.58
75786;DHT22;64402;44.708;37.644;2023-06-26T02:56:37;20.07;79.09
75786;DHT22;64402;44.708;37.644;2023-06-26T02:59:04;20.11;79.12
75786;DHT22;64402;44.708;37.644;2023-06-26T03:01:30;20.13;78.98
75786;DHT22;64402;44.708;37.644;2023-06-26T03:03:57;20.16;78.73
75786;DHT22;64402;44.708;37.644;2023-06-26T03:06:23;20.22;78.95
75786;DHT22;64402;44.708;37.644;2023-06-26T03:08:49;20.31;79.07
75786;DHT22;64402;44.708;37.644;2023-06-26T03:11:15;20.37;78.89
75786;DHT22;64402;44.708;37.644;2023-06-26T03:13:42;20.47;78.64
75786;DHT22;64402;44.708;37.644;2023-06-26T03:16:08;20.57;77.82
75786;DHT22;64402;44.708;37.644;2023-06-26T03:18:34;20.69;77.49
75786;DHT22;64402;44.708;37.644;2023-06-26T03:21:00;20.78;77.30
75786;DHT22;64402;44.708;37.644;2023-06-26T03:23:26;20.91;76.70
75786;DHT22;64402;44.708;37.644;2023-06-26T03:25:53;21.01;76.52
75786;DHT22;64402;44.708;37.644;2023-06-26T03:28:19;21.06;75.78
75786;DHT22;64402;44.708;37.644;2023-06-26T03:30:45;21.15;75.48
75786;DHT22;64402;44.708;37.644;2023-06-26T03:33:11;21.25;75.40
75786;DHT22;64402;44.708;37.644;2023-06-26T03:35:37;21.33;75.07
75786;DHT22;64402;44.708;37.644;2023-06-26T03:38:04;21.44;75.41
75786;DHT22;64402;44.708;37.644;2023-06-26T03:40:31;21.51;75.31
75786;DHT22;64402;44.708;37.644;2023-06-26T03:42:57;21.60;75.26
75786;DHT22;64402;44.708;37.644;2023-06-26T03:45:23;21.69;74.38
75786;DHT22;64402;44.708;37.644;2023-06-26T03:47:49;21.73;74.47
75786;DHT22;64402;44.708;37.644;2023-06-26T03:50:16;21.78;74.52
75786;DHT22;64402;44.708;37.644;2023-06-26T03:52:42;21.87;74.28
75786;DHT22;64402;44.708;37.644;2023-06-26T03:55:08;21.96;74.21
75786;DHT22;64402;44.708;37.644;2023-06-26T03:57:35;22.05;75.16
75786;DHT22;64402;44.708;37.644;2023-06-26T04:00:01;22.10;75.47
75786;DHT22;64402;44.708;37.644;2023-06-26T04:02:27;22.20;75.29
75786;DHT22;64402;44.708;37.644;2023-06-26T04:04:53;22.31;75.46
75786;DHT22;64402;44.708;37.644;2023-06-26T04:07:19;22.41;75.04
75786;DHT22;64402;44.708;37.644;2023-06-26T04:09:46;22.54;74.03
75786;DHT22;64402;44.708;37.644;2023-06-26T04:12:12;22.69;73.99
75786;DHT22;64402;44.708;37.644;2023-06-26T04:14:39;22.82;73.46
75786;DHT22;64402;44.708;37.644;2023-06-26T04:17:05;22.94;73.98
75786;DHT22;64402;44.708;37.644;2023-06-26T04:19:31;23.07;73.19
75786;DHT22;64402;44.708;37.644;2023-06-26T04:21:57;23.18;72.91
75786;DHT22;64402;44.708;37.644;2023-06-26T04:24:24;23.31;71.40
75786;DHT22;64402;44.708;37.644;2023-06-26T04:26:51;23.45;70.19
75786;DHT22;64402;44.708;37.644;2023-06-26T04:29:17;23.56;69.77
75786;DHT22;64402;44.708;37.644;2023-06-26T04:31:43;23.70;68.65
75786;DHT22;64402;44.708;37.644;2023-06-26T04:34:13;23.81;68.08
75786;DHT22;64402;44.708;37.644;2023-06-26T04:36:39;23.91;68.04
75786;DHT22;64402;44.708;37.644;2023-06-26T04:39:05;24.01;67.55
75786;DHT22;64402;44.708;37.644;2023-06-26T04:41:32;24.10;67.22
75786;DHT22;64402;44.708;37.644;2023-06-26T04:43:58;24.18;65.96
75786;DHT22;64402;44.708;37.644;2023-06-26T04:46:24;24.28;65.90
75786;DHT22;64402;44.708;37.644;2023-06-26T04:48:50;24.39;65.24
75786;DHT22;64402;44.708;37.644;2023-06-26T04:51:16;24.48;65.56
75786;DHT22;64402;44.708;37.644;2023-06-26T04:53:46;24.59;65.25
75786;DHT22;64402;44.708;37.644;2023-06-26T04:56:12;24.72;64.32
75786;DHT22;64402;44.708;37.644;2023-06-26T04:58:38;24.85;64.16
75786;DHT22;64402;44.708;37.644;2023-06-26T05:01:04;24.93;63.02
75786;DHT22;64402;44.708;37.644;2023-06-26T05:03:32;25.06;63.15
75786;DHT22;64402;44.708;37.644;2023-06-26T05:05:58;25.20;62.41
75786;DHT22;64402;44.708;37.644;2023-06-26T05:08:25;25.29;61.63
75786;DHT22;64402;44.708;37.644;2023-06-26T05:10:54;25.37;60.82
75786;DHT22;64402;44.708;37.644;2023-06-26T05:13:25;25.48;60.77
75786;DHT22;64402;44.708;37.644;2023-06-26T05:15:52;25.60;60.47
75786;DHT22;64402;44.708;37.644;2023-06-26T05:18:19;25.69;60.43
75786;DHT22;64402;44.708;37.644;2023-06-26T05:20:45;25.82;59.75
75786;DHT22;64402;44.708;37.644;2023-06-26T05:23:12;25.92;58.93
75786;DHT22;64402;44.708;37.644;2023-06-26T05:25:38;26.02;58.39
75786;DHT22;64402;44.708;37.644;2023-06-26T05:28:04;26.09;58.10
75786;DHT22;64402;44.708;37.644;2023-06-26T05:30:31;26.19;58.73
75786;DHT22;64402;44.708;37.644;2023-06-26T05:33:02;26.21;57.39
75786;DHT22;64402;44.708;37.644;2023-06-26T05:35:30;26.31;57.84
75786;DHT22;64402;44.708;37.644;2023-06-26T05:37:57;26.45;57.84
75786;DHT22;64402;44.708;37.644;2023-06-26T05:40:24;26.60;58.13
75786;DHT22;64402;44.708;37.644;2023-06-26T05:42:51;26.67;56.32
75786;DHT22;64402;44.708;37.644;2023-06-26T05:45:17;26.70;55.10
75786;DHT22;64402;44.708;37.644;2023-06-26T05:47:43;26.76;53.87
75786;DHT22;64402;44.708;37.644;2023-06-26T05:50:10;26.82;54.24
75786;DHT22;64402;44.708;37.644;2023-06-26T05:52:36;26.94;54.70
75786;DHT22;64402;44.708;37.644;2023-06-26T05:55:05;27.06;54.87
75786;DHT22;64402;44.708;37.644;2023-06-26T05:57:31;27.15;54.90
75786;DHT22;64402;44.708;37.644;2023-06-26T05:59:58;27.24;54.83
75786;DHT22;64402;44.708;37.644;2023-06-26T06:02:24;27.39;55.33
75786;DHT22;64402;44.708;37.644;2023-06-26T06:04:50;27.42;53.68
75786;DHT22;64402;44.708;37.644;2023-06-26T06:07:16;27.54;54.01
75786;DHT22;64402;44.708;37.644;2023-06-26T06:09:43;27.64;52.74
75786;DHT22;64402;44.708;37.644;2023-06-26T06:12:09;27.79;52.70
75786;DHT22;64402;44.708;37.644;2023-06-26T06:14:35;27.91;52.88
75786;DHT22;64402;44.708;37.644;2023-06-26T06:17:01;27.97;52.72
75786;DHT22;64402;44.708;37.644;2023-06-26T06:19:28;28.11;51.82
75786;DHT22;64402;44.708;37.644;2023-06-26T06:21:54;28.21;51.32
75786;DHT22;64402;44.708;37.644;2023-06-26T06:24:20;28.28;51.33
75786;DHT22;64402;44.708;37.644;2023-06-26T06:26:46;28.42;50.86
75786;DHT22;64402;44.708;37.644;2023-06-26T06:29:12;28.56;49.93
75786;DHT22;64402;44.708;37.644;2023-06-26T06:31:39;28.69;49.45
75786;DHT22;64402;44.708;37.644;2023-06-26T06:34:05;28.83;46.82
75786;DHT22;64402;44.708;37.644;2023-06-26T06:36:31;28.95;46.61
75786;DHT22;64402;44.708;37.644;2023-06-26T06:38:57;28.90;48.94
75786;DHT22;64402;44.708;37.644;2023-06-26T06:41:23;28.86;49.63
75786;DHT22;64402;44.708;37.644;2023-06-26T06:43:49;28.69;49.19
75786;DHT22;64402;44.708;37.644;2023-06-26T06:46:15;28.74;50.63
75786;DHT22;64402;44.708;37.644;2023-06-26T06:48:42;28.77;50.58
75786;DHT22;64402;44.708;37.644;2023-06-26T06:51:08;28.80;50.43
75786;DHT22;64402;44.708;37.644;2023-06-26T06:53:34;28.76;50.24
75786;DHT22;64402;44.708;37.644;2023-06-26T06:56:00;28.71;50.49
75786;DHT22;64402;44.708;37.644;2023-06-26T06:58:26;28.79;51.19
75786;DHT22;64402;44.708;37.644;2023-06-26T07:00:52;28.77;50.56
75786;DHT22;64402;44.708;37.644;2023-06-26T07:03:18;28.89;50.49
75786;DHT22;64402;44.708;37.644;2023-06-26T07:05:47;28.89;50.19
75786;DHT22;64402;44.708;37.644;2023-06-26T07:08:13;29.00;50.05
75786;DHT22;64402;44.708;37.644;2023-06-26T07:10:40;29.05;48.52
75786;DHT22;64402;44.708;37.644;2023-06-26T07:13:06;29.12;49.63
75786;DHT22;64402;44.708;37.644;2023-06-26T07:15:32;29.15;48.73
75786;DHT22;64402;44.708;37.644;2023-06-26T07:17:58;29.08;49.95
75786;DHT22;64402;44.708;37.644;2023-06-26T07:20:24;29.04;48.79
75786;DHT22;64402;44.708;37.644;2023-06-26T07:22:51;29.02;49.66
75786;DHT22;64402;44.708;37.644;2023-06-26T07:25:18;29.08;49.73
75786;DHT22;64402;44.708;37.644;2023-06-26T07:27:44;29.03;49.24
75786;DHT22;64402;44.708;37.644;2023-06-26T07:30:10;28.90;49.92
75786;DHT22;64402;44.708;37.644;2023-06-26T07:32:37;28.79;50.29
75786;DHT22;64402;44.708;37.644;2023-06-26T07:35:04;28.88;50.31
75786;DHT22;64402;44.708;37.644;2023-06-26T07:37:30;28.93;50.93
75786;DHT22;64402;44.708;37.644;2023-06-26T07:39:56;29.00;49.76
75786;DHT22;64402;44.708;37.644;2023-06-26T07:42:23;28.98;49.82
75786;DHT22;64402;44.708;37.644;2023-06-26T07:44:49;28.98;51.14
75786;DHT22;64402;44.708;37.644;2023-06-26T07:47:15;29.13;49.80
75786;DHT22;64402;44.708;37.644;2023-06-26T07:49:41;29.30;49.25
75786;DHT22;64402;44.708;37.644;2023-06-26T07:52:08;29.29;49.11
75786;DHT22;64402;44.708;37.644;2023-06-26T07:54:36;29.12;51.04
75786;DHT22;64402;44.708;37.644;2023-06-26T07:57:04;29.04;50.55
75786;DHT22;64402;44.708;37.644;2023-06-26T07:59:33;29.05;51.24
75786;DHT22;64402;44.708;37.644;2023-06-26T08:01:59;29.15;50.73
75786;DHT22;64402;44.708;37.644;2023-06-26T08:04:28;28.97;49.82
75786;DHT22;64402;44.708;37.644;2023-06-26T08:06:57;28.85;51.37
75786;DHT22;64402;44.708;37.644;2023-06-26T08:09:25;28.92;50.08
75786;DHT22;64402;44.708;37.644;2023-06-26T08:11:52;29.08;54.08
75786;DHT22;64402;44.708;37.644;2023-06-26T08:14:18;29.21;52.97
75786;DHT22;64402;44.708;37.644;2023-06-26T08:16:47;29.31;52.76
75786;DHT22;64402;44.708;37.644;2023-06-26T08:19:14;29.30;53.59
75786;DHT22;64402;44.708;37.644;2023-06-26T08:21:40;29.47;54.12
75786;DHT22;64402;44.708;37.644;2023-06-26T08:24:07;29.64;51.65
75786;DHT22;64402;44.708;37.644;2023-06-26T08:26:34;29.61;52.12
75786;DHT22;64402;44.708;37.644;2023-06-26T08:29:01;29.50;52.36
75786;DHT22;64402;44.708;37.644;2023-06-26T08:31:37;29.59;51.55
75786;DHT22;64402;44.708;37.644;2023-06-26T08:34:04;29.78;49.60
75786;DHT22;64402;44.708;37.644;2023-06-26T08:36:30;29.71;49.85
75786;DHT22;64402;44.708;37.644;2023-06-26T08:38:57;29.91;49.94
75786;DHT22;64402;44.708;37.644;2023-06-26T08:41:23;30.05;48.86
75786;DHT22;64402;44.708;37.644;2023-06-26T08:43:49;30.11;47.82
75786;DHT22;64402;44.708;37.644;2023-06-26T08:46:19;30.16;47.79
75786;DHT22;64402;44.708;37.644;2023-06-26T08:48:47;30.40;48.53
75786;DHT22;64402;44.708;37.644;2023-06-26T08:51:16;30.59;47.25
75786;DHT22;64402;44.708;37.644;2023-06-26T08:53:55;30.62;47.34
75786;DHT22;64402;44.708;37.644;2023-06-26T08:56:22;30.05;49.73
75786;DHT22;64402;44.708;37.644;2023-06-26T08:58:49;29.74;49.55
75786;DHT22;64402;44.708;37.644;2023-06-26T09:01:16;30.08;49.71
75786;DHT22;64402;44.708;37.644;2023-06-26T09:03:43;30.13;48.56
75786;DHT22;64402;44.708;37.644;2023-06-26T09:06:09;30.42;48.53
75786;DHT22;64402;44.708;37.644;2023-06-26T09:08:35;30.61;47.56
75786;DHT22;64402;44.708;37.644;2023-06-26T09:11:01;30.52;47.50
75786;DHT22;64402;44.708;37.644;2023-06-26T09:13:31;30.63;47.97
75786;DHT22;64402;44.708;37.644;2023-06-26T09:15:58;30.65;47.18
75786;DHT22;64402;44.708;37.644;2023-06-26T09:18:24;30.61;47.96
75786;DHT22;64402;44.708;37.644;2023-06-26T09:20:50;30.51;48.81
75786;DHT22;64402;44.708;37.644;2023-06-26T09:23:17;30.45;48.24
75786;DHT22;64402;44.708;37.644;2023-06-26T09:25:43;30.61;49.04
75786;DHT22;64402;44.708;37.644;2023-06-26T09:28:11;31.10;46.06
75786;DHT22;64402;44.708;37.644;2023-06-26T09:30:37;31.99;44.23
75786;DHT22;64402;44.708;37.644;2023-06-26T09:33:17;33.70;39.59
75786;DHT22;64402;44.708;37.644;2023-06-26T09:35:45;34.65;38.52
75786;DHT22;64402;44.708;37.644;2023-06-26T09:38:12;35.29;36.83
75786;DHT22;64402;44.708;37.644;2023-06-26T09:40:39;35.45;36.82
75786;DHT22;64402;44.708;37.644;2023-06-26T09:43:07;35.48;36.50
75786;DHT22;64402;44.708;37.644;2023-06-26T09:45:34;36.00;35.45
75786;DHT22;64402;44.708;37.644;2023-06-26T09:48:04;36.07;35.02
75786;DHT22;64402;44.708;37.644;2023-06-26T09:50:33;36.33;35.54
75786;DHT22;64402;44.708;37.644;2023-06-26T09:53:11;36.40;35.14
75786;DHT22;64402;44.708;37.644;2023-06-26T09:55:40;37.55;33.15
75786;DHT22;64402;44.708;37.644;2023-06-26T09:58:13;37.43;32.96
75786;DHT22;64402;44.708;37.644;2023-06-26T10:00:41;37.65;33.02
75786;DHT22;64402;44.708;37.644;2023-06-26T10:03:11;37.80;32.60
75786;DHT22;64402;44.708;37.644;2023-06-26T10:05:39;38.47;32.25
75786;DHT22;64402;44.708;37.644;2023-06-26T10:08:06;38.09;31.61
75786;DHT22;64402;44.708;37.644;2023-06-26T10:10:35;38.65;30.74
75786;DHT22;64402;44.708;37.644;2023-06-26T10:13:16;37.76;31.48
75786;DHT22;64402;44.708;37.644;2023-06-26T10:15:46;38.02;31.15
75786;DHT22;64402;44.708;37.644;2023-06-26T10:18:13;38.29;31.79
75786;DHT22;64402;44.708;37.644;2023-06-26T10:20:42;38.36;30.85
75786;DHT22;64402;44.708;37.644;2023-06-26T10:23:10;38.99;30.10
75786;DHT22;64402;44.708;37.644;2023-06-26T10:25:40;39.17;30.21
75786;DHT22;64402;44.708;37.644;2023-06-26T10:28:09;39.78;28.90
75786;DHT22;64402;44.708;37.644;2023-06-26T10:30:36;40.07;28.81
75786;DHT22;64402;44.708;37.644;2023-06-26T10:33:03;40.30;27.60
75786;DHT22;64402;44.708;37.644;2023-06-26T10:35:30;39.15;28.63
75786;DHT22;64402;44.708;37.644;2023-06-26T10:38:01;38.80;30.27
75786;DHT22;64402;44.708;37.644;2023-06-26T10:40:45;39.54;29.87
75786;DHT22;64402;44.708;37.644;2023-06-26T10:43:12;40.32;28.04
75786;DHT22;64402;44.708;37.644;2023-06-26T10:45:47;40.24;28.47
75786;DHT22;64402;44.708;37.644;2023-06-26T10:48:31;39.93;29.11
75786;DHT22;64402;44.708;37.644;2023-06-26T10:51:15;39.80;29.09
75786;DHT22;64402;44.708;37.644;2023-06-26T10:53:41;39.85;29.64
75786;DHT22;64402;44.708;37.644;2023-06-26T10:56:09;39.61;29.74
75786;DHT22;64402;44.708;37.644;2023-06-26T11:01:23;39.41;30.38
75786;DHT22;64402;44.708;37.644;2023-06-26T11:04:03;40.11;28.59
75786;DHT22;64402;44.708;37.644;2023-06-26T11:06:30;40.55;28.74
75786;DHT22;64402;44.708;37.644;2023-06-26T11:14:26;40.88;28.03
75786;DHT22;64402;44.708;37.644;2023-06-26T11:16:55;40.62;28.21
75786;DHT22;64402;44.708;37.644;2023-06-26T11:19:26;40.00;28.90
75786;DHT22;64402;44.708;37.644;2023-06-26T11:21:58;40.11;29.00
75786;DHT22;64402;44.708;37.644;2023-06-26T11:24:25;40.14;29.34
75786;DHT22;64402;44.708;37.644;2023-06-26T11:26:51;39.89;30.31
75786;DHT22;64402;44.708;37.644;2023-06-26T11:29:18;40.38;29.06
75786;DHT22;64402;44.708;37.644;2023-06-26T11:31:44;40.97;28.19
75786;DHT22;64402;44.708;37.644;2023-06-26T11:34:12;40.63;28.90
75786;DHT22;64402;44.708;37.644;2023-06-26T11:36:40;41.14;27.50
75786;DHT22;64402;44.708;37.644;2023-06-26T11:39:08;40.76;28.23
75786;DHT22;64402;44.708;37.644;2023-06-26T11:41:37;40.87;26.80
75786;DHT22;64402;44.708;37.644;2023-06-26T11:44:06;41.59;25.89
75786;DHT22;64402;44.708;37.644;2023-06-26T11:46:34;40.74;26.67
75786;DHT22;64402;44.708;37.644;2023-06-26T11:49:05;40.90;25.87
75786;DHT22;64402;44.708;37.644;2023-06-26T11:51:32;41.01;26.20
75786;DHT22;64402;44.708;37.644;2023-06-26T11:54:01;41.76;25.97
75786;DHT22;64402;44.708;37.644;2023-06-26T11:56:28;41.31;26.18
75786;DHT22;64402;44.708;37.644;2023-06-26T11:59:02;41.04;26.96
75786;DHT22;64402;44.708;37.644;2023-06-26T12:01:34;40.24;28.58
75786;DHT22;64402;44.708;37.644;2023-06-26T12:04:03;40.47;27.85
75786;DHT22;64402;44.708;37.644;2023-06-26T12:06:32;40.62;27.48
75786;DHT22;64402;44.708;37.644;2023-06-26T12:09:01;40.77;27.64
75786;DHT22;64402;44.708;37.644;2023-06-26T12:11:29;41.88;26.26
75786;DHT22;64402;44.708;37.644;2023-06-26T12:13:56;41.29;27.07
75786;DHT22;64402;44.708;37.644;2023-06-26T12:16:23;40.85;27.82
75786;DHT22;64402;44.708;37.644;2023-06-26T12:18:49;40.41;28.84
75786;DHT22;64402;44.708;37.644;2023-06-26T12:24:07;40.63;26.65
75786;DHT22;64402;44.708;37.644;2023-06-26T12:26:34;40.74;27.27
75786;DHT22;64402;44.708;37.644;2023-06-26T12:29:02;41.14;25.91
75786;DHT22;64402;44.708;37.644;2023-06-26T12:31:29;40.52;27.73
75786;DHT22;64402;44.708;37.644;2023-06-26T12:33:55;40.46;26.54
75786;DHT22;64402;44.708;37.644;2023-06-26T12:36:21;41.51;26.14
75786;DHT22;64402;44.708;37.644;2023-06-26T12:38:48;41.78;25.30
75786;DHT22;64402;44.708;37.644;2023-06-26T12:41:15;41.90;25.52
75786;DHT22;64402;44.708;37.644;2023-06-26T12:43:42;41.20;24.82
75786;DHT22;64402;44.708;37.644;2023-06-26T12:46:09;41.60;26.23
75786;DHT22;64402;44.708;37.644;2023-06-26T12:48:44;41.64;26.37
75786;DHT22;64402;44.708;37.644;2023-06-26T12:51:14;42.19;24.65
75786;DHT22;64402;44.708;37.644;2023-06-26T12:53:41;42.50;24.49
75786;DHT22;64402;44.708;37.644;2023-06-26T12:56:10;43.37;22.15
75786;DHT22;64402;44.708;37.644;2023-06-26T12:58:37;42.58;23.80
75786;DHT22;64402;44.708;37.644;2023-06-26T13:01:05;42.70;23.49
75786;DHT22;64402;44.708;37.644;2023-06-26T13:03:31;42.66;23.23
75786;DHT22;64402;44.708;37.644;2023-06-26T13:05:57;43.29;21.95
75786;DHT22;64402;44.708;37.644;2023-06-26T13:08:24;43.55;21.80
75786;DHT22;64402;44.708;37.644;2023-06-26T13:10:52;43.51;21.91
75786;DHT22;64402;44.708;37.644;2023-06-26T13:13:18;43.29;21.57
75786;DHT22;64402;44.708;37.644;2023-06-26T13:15:45;43.16;21.98
75786;DHT22;64402;44.708;37.644;2023-06-26T13:18:11;43.12;22.34
75786;DHT22;64402;44.708;37.644;2023-06-26T13:20:37;42.41;23.09
75786;DHT22;64402;44.708;37.644;2023-06-26T13:23:03;43.22;21.76
75786;DHT22;64402;44.708;37.644;2023-06-26T13:25:29;43.74;21.95
75786;DHT22;64402;44.708;37.644;2023-06-26T13:27:55;43.56;22.07
75786;DHT22;64402;44.708;37.644;2023-06-26T13:30:21;43.87;21.18
75786;DHT22;64402;44.708;37.644;2023-06-26T13:32:48;44.02;21.24
75786;DHT22;64402;44.708;37.644;2023-06-26T13:35:14;44.00;21.08
75786;DHT22;64402;44.708;37.644;2023-06-26T13:37:40;43.26;21.89
75786;DHT22;64402;44.708;37.644;2023-06-26T13:40:07;43.05;21.91
75786;DHT22;64402;44.708;37.644;2023-06-26T13:42:34;42.75;21.11
75786;DHT22;64402;44.708;37.644;2023-06-26T13:45:02;42.76;21.97
75786;DHT22;64402;44.708;37.644;2023-06-26T13:47:29;43.05;21.45
75786;DHT22;64402;44.708;37.644;2023-06-26T13:49:55;42.66;21.64
75786;DHT22;64402;44.708;37.644;2023-06-26T13:52:21;41.93;23.02
75786;DHT22;64402;44.708;37.644;2023-06-26T13:54:47;41.21;23.82
75786;DHT22;64402;44.708;37.644;2023-06-26T13:57:13;41.43;23.36
75786;DHT22;64402;44.708;37.644;2023-06-26T13:59:40;41.62;23.33
75786;DHT22;64402;44.708;37.644;2023-06-26T14:02:07;41.91;22.45
75786;DHT22;64402;44.708;37.644;2023-06-26T14:04:34;41.05;23.02
75786;DHT22;64402;44.708;37.644;2023-06-26T14:07:00;40.62;24.27
75786;DHT22;64402;44.708;37.644;2023-06-26T14:09:26;40.16;24.36
75786;DHT22;64402;44.708;37.644;2023-06-26T14:11:52;40.07;24.89
75786;DHT22;64402;44.708;37.644;2023-06-26T14:14:18;40.71;23.57
75786;DHT22;64402;44.708;37.644;2023-06-26T14:16:44;39.49;25.20
75786;DHT22;64402;44.708;37.644;2023-06-26T14:19:10;39.89;25.47
75786;DHT22;64402;44.708;37.644;2023-06-26T14:21:40;40.16;24.29
75786;DHT22;64402;44.708;37.644;2023-06-26T14:24:06;39.98;24.52
75786;DHT22;64402;44.708;37.644;2023-06-26T14:26:33;40.44;24.26
75786;DHT22;64402;44.708;37.644;2023-06-26T14:29:00;40.53;23.82
75786;DHT22;64402;44.708;37.644;2023-06-26T14:31:27;40.17;24.72
75786;DHT22;64402;44.708;37.644;2023-06-26T14:33:54;40.28;23.92
75786;DHT22;64402;44.708;37.644;2023-06-26T14:36:21;39.95;24.42
75786;DHT22;64402;44.708;37.644;2023-06-26T14:38:47;40.54;24.05
75786;DHT22;64402;44.708;37.644;2023-06-26T14:41:14;40.06;24.29
75786;DHT22;64402;44.708;37.644;2023-06-26T14:43:40;39.66;24.80
75786;DHT22;64402;44.708;37.644;2023-06-26T14:46:06;39.56;24.79
75786;DHT22;64402;44.708;37.644;2023-06-26T14:48:32;39.24;24.85
75786;DHT22;64402;44.708;37.644;2023-06-26T14:50:58;39.32;25.49
75786;DHT22;64402;44.708;37.644;2023-06-26T14:53:26;39.41;24.88
75786;DHT22;64402;44.708;37.644;2023-06-26T14:55:52;39.32;25.81
75786;DHT22;64402;44.708;37.644;2023-06-26T14:58:18;38.56;27.71
75786;DHT22;64402;44.708;37.644;2023-06-26T15:00:44;38.26;28.69
75786;DHT22;64402;44.708;37.644;2023-06-26T15:03:11;38.07;28.97
75786;DHT22;64402;44.708;37.644;2023-06-26T15:05:37;37.79;29.73
75786;DHT22;64402;44.708;37.644;2023-06-26T15:08:03;37.19;31.40
75786;DHT22;64402;44.708;37.644;2023-06-26T15:10:30;37.08;31.87
75786;DHT22;64402;44.708;37.644;2023-06-26T15:12:56;36.87;32.86
75786;DHT22;64402;44.708;37.644;2023-06-26T15:15:23;37.00;32.34
75786;DHT22;64402;44.708;37.644;2023-06-26T15:17:49;36.70;32.68
75786;DHT22;64402;44.708;37.644;2023-06-26T15:20:15;35.79;33.77
75786;DHT22;64402;44.708;37.644;2023-06-26T15:22:41;35.64;33.96
75786;DHT22;64402;44.708;37.644;2023-06-26T15:25:08;35.07;35.18
75786;DHT22;64402;44.708;37.644;2023-06-26T15:27:34;35.07;35.76
75786;DHT22;64402;44.708;37.644;2023-06-26T15:30:00;34.50;37.41
75786;DHT22;64402;44.708;37.644;2023-06-26T15:32:26;34.29;38.02
75786;DHT22;64402;44.708;37.644;2023-06-26T15:34:52;34.04;39.14